createdAt,value
2018-08-25T00:02:21.229Z,2.70
2018-08-25T00:04:50.252Z,3.40
2018-08-25T00:07:20.108Z,3.17
2018-08-25T00:09:49.086Z,2.80
2018-08-25T00:12:18.158Z,3.57
2018-08-25T00:14:47.172Z,2.70
2018-08-25T00:17:16.180Z,2.20
2018-08-25T00:19:45.204Z,1.93
2018-08-25T00:22:14.302Z,1.90
2018-08-25T00:24:43.312Z,2.40
2018-08-25T00:27:12.343Z,1.80
2018-08-25T00:29:41.413Z,2.43
2018-08-25T00:32:10.441Z,1.60
2018-08-25T00:34:40.086Z,2.07
2018-08-25T00:37:09.897Z,2.43
2018-08-25T00:39:38.937Z,1.87
2018-08-25T00:42:08.032Z,1.73
2018-08-25T00:44:37.033Z,2.03
2018-08-25T00:47:06.127Z,1.53
2018-08-25T00:49:35.138Z,2.20
2018-08-25T00:52:04.194Z,1.87
2018-08-25T00:54:33.175Z,1.60
2018-08-25T00:57:02.208Z,1.57
2018-08-25T00:59:31.320Z,1.90
2018-08-25T01:02:00.340Z,1.90
2018-08-25T01:04:29.905Z,1.90
2018-08-25T01:06:58.953Z,2.77
2018-08-25T01:09:28.515Z,3.90
2018-08-25T01:11:57.555Z,3.10
2018-08-25T01:14:26.591Z,3.03
2018-08-25T01:16:55.620Z,4.33
2018-08-25T01:19:27.550Z,4.20
2018-08-25T01:21:56.735Z,2.67
2018-08-25T01:24:25.744Z,2.40
2018-08-25T01:26:54.790Z,1.90
2018-08-25T01:29:23.852Z,2.93
2018-08-25T01:31:52.841Z,2.87
2018-08-25T01:34:21.881Z,2.93
2018-08-25T01:36:50.857Z,2.33
2018-08-25T01:39:19.873Z,2.20
2018-08-25T01:41:49.017Z,2.13
2018-08-25T01:44:18.056Z,2.30
2018-08-25T01:46:47.043Z,2.47
2018-08-25T01:49:16.081Z,2.33
2018-08-25T01:51:45.076Z,2.03
2018-08-25T01:54:14.121Z,2.10
2018-08-25T01:56:43.820Z,2.53
2018-08-25T01:59:12.884Z,1.90
2018-08-25T02:01:41.909Z,2.17
2018-08-25T02:04:10.985Z,1.60
2018-08-25T02:06:40.217Z,1.60
2018-08-25T02:09:11.577Z,1.90
2018-08-25T02:11:41.293Z,1.60
2018-08-25T02:14:11.123Z,1.73
2018-08-25T02:16:40.997Z,1.77
2018-08-25T02:19:10.213Z,1.80
2018-08-25T02:21:39.226Z,1.50
2018-08-25T02:24:08.990Z,2.00
2018-08-25T02:26:38.058Z,2.00
2018-08-25T02:29:07.109Z,2.37
2018-08-25T02:31:36.785Z,1.73
2018-08-25T02:34:06.049Z,1.60
2018-08-25T02:36:35.042Z,1.97
2018-08-25T02:39:06.233Z,2.00
2018-08-25T02:41:35.280Z,2.20
2018-08-25T02:44:04.272Z,1.60
2018-08-25T02:46:33.452Z,1.90
2018-08-25T02:49:02.461Z,1.90
2018-08-25T02:51:31.447Z,1.83
2018-08-25T02:54:00.458Z,2.00
2018-08-25T02:56:29.493Z,2.00
2018-08-25T02:58:59.288Z,2.13
2018-08-25T03:01:28.990Z,1.80
2018-08-25T03:03:58.087Z,1.87
2018-08-25T03:06:27.137Z,1.50
2018-08-25T03:08:56.128Z,1.63
2018-08-25T03:11:26.216Z,1.70
2018-08-25T03:13:55.233Z,1.80
2018-08-25T03:16:24.205Z,1.47
2018-08-25T03:18:53.234Z,2.17
2018-08-25T03:21:22.213Z,1.90
2018-08-25T03:23:51.240Z,1.80
2018-08-25T03:26:20.205Z,1.83
2018-08-25T03:28:49.217Z,1.70
2018-08-25T03:31:18.193Z,1.73
2018-08-25T03:33:47.209Z,2.00
2018-08-25T03:36:16.945Z,2.10
2018-08-25T03:38:45.978Z,2.00
2018-08-25T03:41:14.963Z,1.77
2018-08-25T03:43:43.996Z,2.27
2018-08-25T03:46:13.052Z,1.73
2018-08-25T03:48:42.052Z,1.73
2018-08-25T03:51:11.070Z,1.40
2018-08-25T03:53:40.065Z,1.57
2018-08-25T03:56:09.062Z,1.83
2018-08-25T03:58:38.061Z,1.80
2018-08-25T04:01:07.048Z,1.50
2018-08-25T04:03:36.069Z,1.97
2018-08-25T04:06:05.258Z,1.87
2018-08-25T04:08:34.878Z,2.00
2018-08-25T04:11:03.909Z,1.60
2018-08-25T04:13:32.892Z,1.60
2018-08-25T04:16:01.925Z,2.03
2018-08-25T04:18:30.924Z,2.23
2018-08-25T04:20:59.941Z,1.90
2018-08-25T04:23:28.934Z,2.60
2018-08-25T04:25:57.932Z,2.90
2018-08-25T04:28:26.932Z,1.93
2018-08-25T04:30:55.956Z,2.50
2018-08-25T04:33:24.927Z,2.43
2018-08-25T04:35:54.385Z,2.50
2018-08-25T04:38:23.411Z,2.90
2018-08-25T04:40:52.372Z,3.00
2018-08-25T04:43:21.376Z,2.90
2018-08-25T04:45:50.407Z,3.30
2018-08-25T04:48:19.433Z,2.87
2018-08-25T04:50:48.416Z,3.27
2018-08-25T04:53:17.415Z,3.30
2018-08-25T04:55:47.115Z,3.40
2018-08-25T04:58:16.164Z,2.83
2018-08-25T05:00:45.168Z,2.83
2018-08-25T05:03:14.163Z,2.70
2018-08-25T05:05:43.139Z,3.57
2018-08-25T05:08:12.160Z,3.00
2018-08-25T05:10:42.037Z,3.87
2018-08-25T05:13:11.050Z,3.30
2018-08-25T05:15:40.257Z,5.30
2018-08-25T05:18:09.338Z,6.30
2018-08-25T05:20:38.358Z,4.80
2018-08-25T05:23:08.074Z,4.03
2018-08-25T05:25:37.059Z,3.70
2018-08-25T05:28:06.033Z,3.60
2018-08-25T05:30:35.623Z,4.33
2018-08-25T05:33:04.641Z,4.23
2018-08-25T05:35:33.659Z,6.13
2018-08-25T05:38:02.778Z,3.97
2018-08-25T05:40:31.777Z,3.73
2018-08-25T05:43:01.432Z,3.03
2018-08-25T05:45:30.505Z,2.97
2018-08-25T05:47:59.768Z,3.23
2018-08-25T05:50:28.743Z,3.50
2018-08-25T05:52:57.765Z,3.60
2018-08-25T05:55:26.777Z,3.20
2018-08-25T05:57:57.775Z,3.63
2018-08-25T06:00:26.768Z,3.40
2018-08-25T06:02:55.759Z,3.87
2018-08-25T06:05:24.801Z,3.53
2018-08-25T06:07:53.917Z,3.40
2018-08-25T06:10:22.917Z,3.20
2018-08-25T06:12:51.948Z,3.20
2018-08-25T06:15:20.947Z,3.60
2018-08-25T06:17:49.975Z,3.50
2018-08-25T06:20:19.076Z,3.90
2018-08-25T06:22:48.085Z,3.70
2018-08-25T06:25:17.136Z,3.73
2018-08-25T06:27:46.790Z,3.73
2018-08-25T06:30:15.893Z,3.63
2018-08-25T06:32:44.869Z,4.30
2018-08-25T06:35:13.903Z,3.97
2018-08-25T06:37:42.917Z,4.40
2018-08-25T06:40:11.917Z,4.80
2018-08-25T06:42:40.962Z,4.40
2018-08-25T06:45:09.946Z,4.77
2018-08-25T06:47:38.980Z,5.10
2018-08-25T06:50:08.062Z,5.50
2018-08-25T06:52:37.024Z,6.20
2018-08-25T06:55:06.091Z,5.40
2018-08-25T06:57:35.685Z,5.20
2018-08-25T07:00:05.642Z,6.07
2018-08-25T07:02:34.715Z,6.33
2018-08-25T07:05:03.820Z,5.83
2018-08-25T07:07:32.878Z,5.97
2018-08-25T07:10:01.979Z,6.10
2018-08-25T07:12:30.985Z,6.60
2018-08-25T07:14:59.984Z,5.83
2018-08-25T07:17:28.968Z,7.10
2018-08-25T07:19:58.528Z,6.63
2018-08-25T07:22:27.555Z,6.27
2018-08-25T07:24:56.547Z,6.60
2018-08-25T07:27:25.607Z,7.00
2018-08-25T07:29:58.104Z,7.40
2018-08-25T07:32:27.112Z,6.67
2018-08-25T07:34:56.141Z,7.33
2018-08-25T07:37:25.190Z,6.70
2018-08-25T07:39:54.183Z,7.47
2018-08-25T07:42:23.768Z,6.30
2018-08-25T07:44:52.807Z,6.60
2018-08-25T07:47:21.842Z,5.70
2018-08-25T07:49:50.885Z,6.50
2018-08-25T07:52:19.944Z,5.77
2018-08-25T07:54:48.958Z,5.50
2018-08-25T07:57:17.995Z,5.43
2018-08-25T07:59:47.196Z,5.50
2018-08-25T08:02:16.304Z,5.30
2018-08-25T08:04:45.374Z,5.43
2018-08-25T08:07:14.416Z,6.57
2018-08-25T08:09:43.540Z,5.80
2018-08-25T08:12:12.599Z,5.27
2018-08-25T08:14:41.797Z,5.30
2018-08-25T08:17:11.079Z,6.67
2018-08-25T08:19:40.347Z,6.67
2018-08-25T08:22:10.268Z,6.70
2018-08-25T08:24:39.265Z,6.77
2018-08-25T08:27:08.396Z,6.60
2018-08-25T08:29:37.489Z,6.27
2018-08-25T08:32:06.852Z,6.87
2018-08-25T08:34:36.098Z,6.30
2018-08-25T08:37:05.242Z,5.90
2018-08-25T08:39:34.293Z,5.67
2018-08-25T08:42:03.344Z,6.00
2018-08-25T08:44:32.383Z,4.97
2018-08-25T08:47:01.475Z,7.17
2018-08-25T08:49:31.136Z,7.17
2018-08-25T08:52:00.181Z,6.50
2018-08-25T08:54:29.216Z,6.57
2018-08-25T08:56:58.323Z,5.73
2018-08-25T08:59:27.349Z,6.43
2018-08-25T09:01:56.409Z,5.43
2018-08-25T09:04:26.571Z,6.13
2018-08-25T09:06:55.586Z,6.53
2018-08-25T09:09:24.616Z,6.83
2018-08-25T09:11:53.738Z,5.70
2018-08-25T09:14:24.830Z,6.30
2018-08-25T09:16:53.878Z,5.80
2018-08-25T09:19:22.935Z,6.30
2018-08-25T09:21:52.005Z,6.00
2018-08-25T09:24:21.056Z,6.20
2018-08-25T09:26:50.147Z,6.80
2018-08-25T09:29:19.125Z,7.50
2018-08-25T09:31:48.262Z,9.23
2018-08-25T09:34:17.288Z,9.57
2018-08-25T09:36:46.596Z,10.10
2018-08-25T09:39:15.520Z,8.33
2018-08-25T09:41:44.587Z,9.87
2018-08-25T09:44:13.769Z,8.43
2018-08-25T09:46:42.829Z,9.27
2018-08-25T09:49:11.968Z,9.63
2018-08-25T09:51:41.004Z,8.30
2018-08-25T09:54:10.089Z,8.90
2018-08-25T09:56:39.117Z,8.20
2018-08-25T09:59:08.340Z,8.20
2018-08-25T10:01:42.785Z,6.60
2018-08-25T10:04:11.953Z,6.27
2018-08-25T10:06:41.040Z,5.90
2018-08-25T10:09:10.173Z,4.73
2018-08-25T10:11:39.199Z,4.83
2018-08-25T10:14:08.247Z,4.50
2018-08-25T10:16:37.347Z,4.90
2018-08-25T10:19:06.329Z,4.30
2018-08-25T10:21:35.584Z,4.07
2018-08-25T10:24:04.715Z,3.63
2018-08-25T10:26:33.752Z,3.27
2018-08-25T10:29:03.561Z,2.60
2018-08-25T10:31:32.636Z,3.27
2018-08-25T10:34:01.826Z,2.90
2018-08-25T10:36:30.830Z,2.73
2018-08-25T10:38:59.941Z,2.90
2018-08-25T10:41:29.727Z,2.30
2018-08-25T10:43:58.704Z,2.17
2018-08-25T10:46:27.741Z,2.40
2018-08-25T10:48:56.890Z,1.90
2018-08-25T10:51:25.936Z,2.00
2018-08-25T10:53:54.977Z,1.63
2018-08-25T10:56:24.026Z,1.67
2018-08-25T10:58:53.138Z,1.20
2018-08-25T11:01:22.878Z,1.40
2018-08-25T11:03:51.912Z,1.30
2018-08-25T11:06:21.036Z,1.40
2018-08-25T11:08:50.169Z,1.23
2018-08-25T11:11:19.121Z,1.00
2018-08-25T11:13:48.149Z,1.33
2018-08-25T11:16:17.271Z,1.23
2018-08-25T11:18:46.276Z,1.23
2018-08-25T11:21:15.299Z,1.27
2018-08-25T11:23:44.390Z,1.00
2018-08-25T11:26:13.355Z,1.30
2018-08-25T11:28:42.457Z,1.17
2018-08-25T11:31:11.528Z,1.10
2018-08-25T11:33:40.562Z,1.20
2018-08-25T11:36:09.693Z,1.30
2018-08-25T11:38:38.773Z,1.30
2018-08-25T11:41:07.857Z,1.83
2018-08-25T11:43:37.053Z,1.63
2018-08-25T11:46:06.092Z,1.53
2018-08-25T11:48:35.913Z,1.57
2018-08-25T11:51:04.965Z,1.13
2018-08-25T11:53:34.942Z,1.40
2018-08-25T11:56:04.041Z,1.77
2018-08-25T11:58:33.065Z,1.70
2018-08-25T12:01:03.738Z,2.00
2018-08-25T12:03:33.524Z,1.37
2018-08-25T12:06:02.400Z,1.80
2018-08-25T12:08:31.457Z,2.50
2018-08-25T12:11:01.032Z,1.90
2018-08-25T12:13:30.078Z,1.90
2018-08-25T12:15:59.166Z,2.33
2018-08-25T12:18:28.168Z,1.60
2018-08-25T12:20:57.301Z,1.80
2018-08-25T12:23:26.383Z,1.87
2018-08-25T12:25:55.444Z,2.80
2018-08-25T12:28:24.533Z,4.40
2018-08-25T12:30:54.809Z,4.07
2018-08-25T12:33:23.934Z,4.07
2018-08-25T12:35:52.977Z,3.90
2018-08-25T12:38:21.997Z,2.50
2018-08-25T12:40:51.056Z,2.17
2018-08-25T12:43:20.164Z,2.30
2018-08-25T12:45:49.197Z,2.27
2018-08-25T12:48:18.231Z,2.53
2018-08-25T12:50:47.276Z,2.20
2018-08-25T12:53:16.361Z,2.20
2018-08-25T12:55:45.393Z,1.80
2018-08-25T12:58:14.600Z,2.20
2018-08-25T13:00:43.610Z,2.40
2018-08-25T13:03:13.034Z,2.40
2018-08-25T13:05:42.098Z,2.20
2018-08-25T13:08:11.274Z,1.97
2018-08-25T13:10:40.346Z,2.20
2018-08-25T13:13:09.421Z,2.43
2018-08-25T13:15:38.409Z,6.70
2018-08-25T13:18:07.441Z,5.20
2018-08-25T13:20:37.161Z,3.97
2018-08-25T13:23:06.220Z,4.77
2018-08-25T13:25:35.258Z,4.67
2018-08-25T13:28:04.336Z,4.80
2018-08-25T13:30:33.404Z,5.47
2018-08-25T13:33:02.519Z,6.53
2018-08-25T13:35:31.701Z,6.20
2018-08-25T13:38:00.754Z,6.87
2018-08-25T13:40:29.798Z,5.37
2018-08-25T13:42:58.892Z,5.10
2018-08-25T13:45:28.713Z,5.10
2018-08-25T13:47:59.014Z,4.83
2018-08-25T13:50:28.052Z,5.53
2018-08-25T13:52:57.793Z,6.87
2018-08-25T13:55:27.344Z,6.30
2018-08-25T13:57:56.394Z,6.47
2018-08-25T14:00:25.407Z,6.10
2018-08-25T14:02:54.439Z,4.97
2018-08-25T14:05:23.497Z,6.90
2018-08-25T14:07:52.509Z,5.90
2018-08-25T14:10:21.608Z,5.67
2018-08-25T14:12:50.633Z,6.13
2018-08-25T14:15:19.695Z,5.70
2018-08-25T14:17:48.748Z,6.23
2018-08-25T14:20:17.952Z,5.10
2018-08-25T14:22:47.097Z,4.90
2018-08-25T14:25:16.123Z,4.03
2018-08-25T14:27:45.156Z,3.30
2018-08-25T14:30:14.206Z,2.70
2018-08-25T14:32:43.425Z,2.50
2018-08-25T14:35:12.540Z,2.47
2018-08-25T14:37:42.238Z,2.50
2018-08-25T14:40:11.342Z,1.80
2018-08-25T14:42:40.434Z,2.37
2018-08-25T14:45:09.539Z,1.77
2018-08-25T14:47:38.565Z,1.93
2018-08-25T14:50:07.656Z,2.27
2018-08-25T14:52:36.680Z,2.33
2018-08-25T14:55:05.830Z,2.27
2018-08-25T14:57:34.896Z,2.63
2018-08-25T15:00:10.373Z,2.60
2018-08-25T15:02:39.421Z,1.80
2018-08-25T15:05:08.536Z,2.20
2018-08-25T15:07:38.114Z,2.73
2018-08-25T15:10:07.186Z,2.30
2018-08-25T15:12:36.264Z,2.10
2018-08-25T15:15:05.445Z,1.83
2018-08-25T15:17:34.460Z,2.90
2018-08-25T15:20:03.524Z,1.57
2018-08-25T15:22:33.180Z,1.50
2018-08-25T15:25:02.252Z,1.70
2018-08-25T15:27:31.300Z,1.07
2018-08-25T15:30:00.360Z,1.50
2018-08-25T15:32:29.435Z,1.20
2018-08-25T15:34:58.475Z,1.30
2018-08-25T15:37:28.313Z,1.40
2018-08-25T15:39:57.434Z,12.67
2018-08-25T15:42:26.471Z,1.90
2018-08-25T15:44:55.495Z,1.43
2018-08-25T15:47:24.525Z,1.10
2018-08-25T15:49:53.587Z,1.33
2018-08-25T15:52:22.669Z,1.57
2018-08-25T15:54:51.842Z,1.20
2018-08-25T15:57:21.002Z,1.00
2018-08-25T15:59:50.857Z,1.37
2018-08-25T16:02:19.869Z,1.33
2018-08-25T16:04:48.901Z,1.40
2018-08-25T16:07:18.001Z,1.27
2018-08-25T16:09:47.160Z,1.50
2018-08-25T16:12:16.261Z,1.33
2018-08-25T16:14:45.339Z,1.67
2018-08-25T16:17:14.390Z,1.30
2018-08-25T16:19:43.630Z,1.00
2018-08-25T16:22:12.689Z,1.23
2018-08-25T16:24:43.196Z,1.13
2018-08-25T16:27:12.269Z,1.50
2018-08-25T16:29:41.443Z,1.20
2018-08-25T16:32:11.048Z,1.33
2018-08-25T16:34:40.185Z,1.40
2018-08-25T16:37:09.260Z,1.40
2018-08-25T16:39:38.313Z,1.20
2018-08-25T16:42:07.360Z,1.67
2018-08-25T16:44:36.400Z,1.37
2018-08-25T16:47:05.989Z,1.17
2018-08-25T16:49:35.065Z,1.40
2018-08-25T16:52:04.180Z,2.00
2018-08-25T16:54:33.265Z,1.40
2018-08-25T16:57:02.362Z,2.20
2018-08-25T16:59:32.022Z,1.80
2018-08-25T17:02:01.271Z,1.30
2018-08-25T17:04:30.853Z,1.53
2018-08-25T17:06:59.926Z,1.60
2018-08-25T17:09:29.047Z,1.13
2018-08-25T17:11:58.070Z,1.27
2018-08-25T17:14:27.123Z,1.20
2018-08-25T17:16:56.210Z,0.97
2018-08-25T17:19:25.269Z,1.47
2018-08-25T17:21:54.336Z,1.37
2018-08-25T17:24:23.490Z,1.30
2018-08-25T17:26:52.593Z,1.27
2018-08-25T17:29:21.618Z,1.40
2018-08-25T17:31:50.662Z,1.20
2018-08-25T17:34:19.666Z,1.17
2018-08-25T17:36:55.470Z,1.20
2018-08-25T17:39:25.067Z,1.07
2018-08-25T17:41:54.093Z,1.13
2018-08-25T17:44:23.252Z,1.00
2018-08-25T17:46:52.363Z,1.40
2018-08-25T17:49:21.512Z,1.60
2018-08-25T17:51:51.384Z,1.70
2018-08-25T17:54:21.003Z,1.87
2018-08-25T17:56:50.154Z,1.60
2018-08-25T17:59:19.258Z,1.20
2018-08-25T18:01:48.523Z,1.47
2018-08-25T18:04:17.644Z,1.20
2018-08-25T18:06:46.706Z,1.80
2018-08-25T18:09:15.744Z,1.63
2018-08-25T18:11:45.636Z,1.77
2018-08-25T18:14:14.657Z,1.53
2018-08-25T18:16:43.722Z,1.10
2018-08-25T18:19:12.898Z,1.30
2018-08-25T18:21:42.677Z,1.87
2018-08-25T18:24:11.726Z,1.70
2018-08-25T18:26:41.067Z,1.97
2018-08-25T18:29:10.461Z,1.40
2018-08-25T18:31:40.074Z,2.13
2018-08-25T18:34:09.448Z,1.90
2018-08-25T18:36:38.922Z,2.10
2018-08-25T18:39:10.160Z,2.20
2018-08-25T18:41:39.242Z,2.00
2018-08-25T18:44:08.625Z,2.60
2018-08-25T18:46:37.815Z,3.10
2018-08-25T18:49:07.652Z,2.13
2018-08-25T18:51:36.732Z,2.23
2018-08-25T18:54:06.031Z,2.63
2018-08-25T18:56:35.121Z,2.47
2018-08-25T18:59:05.130Z,2.50
2018-08-25T19:01:34.709Z,2.20
2018-08-25T19:04:04.145Z,2.60
2018-08-25T19:06:33.272Z,2.10
2018-08-25T19:09:02.347Z,1.80
2018-08-25T19:11:31.541Z,1.67
2018-08-25T19:14:00.621Z,1.60
2018-08-25T19:16:29.677Z,1.70
2018-08-25T19:18:59.329Z,1.13
2018-08-25T19:21:28.807Z,1.07
2018-08-25T19:23:58.336Z,1.10
2018-08-25T19:26:27.953Z,1.10
2018-08-25T19:28:57.424Z,1.20
2018-08-25T19:31:26.936Z,1.10
2018-08-25T19:33:56.332Z,1.10
2018-08-25T19:36:26.680Z,1.20
2018-08-25T19:38:56.194Z,1.10
2018-08-25T19:41:25.739Z,1.30
2018-08-25T19:43:55.193Z,1.30
2018-08-25T19:46:24.531Z,1.43
2018-08-25T19:48:54.104Z,1.30
2018-08-25T19:51:23.612Z,1.40
2018-08-25T19:53:53.724Z,1.40
2018-08-25T19:56:23.231Z,1.23
2018-08-25T19:58:52.470Z,1.30
2018-08-25T20:01:23.571Z,1.37
2018-08-25T20:03:52.660Z,1.57
2018-08-25T20:06:22.066Z,1.23
2018-08-25T20:08:52.339Z,1.53
2018-08-25T20:11:21.782Z,1.27
2018-08-25T20:13:50.942Z,1.23
2018-08-25T20:16:19.996Z,1.43
2018-08-25T20:18:49.416Z,1.53
2018-08-25T20:21:19.324Z,1.30
2018-08-25T20:23:48.726Z,1.33
2018-08-25T20:26:18.128Z,1.50
2018-08-25T20:28:47.216Z,1.30
2018-08-25T20:31:16.626Z,1.33
2018-08-25T20:33:45.723Z,1.37
2018-08-25T20:36:15.335Z,1.40
2018-08-25T20:38:44.857Z,1.33
2018-08-25T20:41:13.894Z,7.07
2018-08-25T20:43:44.047Z,1.67
2018-08-25T20:46:13.307Z,1.10
2018-08-25T20:48:42.369Z,1.20
2018-08-25T20:51:12.000Z,0.90
2018-08-25T20:53:41.084Z,1.13
2018-08-25T20:56:10.174Z,1.20
2018-08-25T20:58:39.267Z,1.40
2018-08-25T21:01:08.327Z,1.23
2018-08-25T21:03:37.363Z,1.30
2018-08-25T21:06:06.424Z,1.70
2018-08-25T21:08:36.152Z,1.40
2018-08-25T21:11:05.193Z,1.30
2018-08-25T21:13:34.220Z,1.40
2018-08-25T21:16:03.316Z,1.33
2018-08-25T21:18:32.918Z,1.30
2018-08-25T21:21:01.948Z,2.00
2018-08-25T21:23:31.476Z,1.63
2018-08-25T21:26:00.730Z,1.80
2018-08-25T21:28:29.764Z,1.60
2018-08-25T21:30:58.866Z,1.60
2018-08-25T21:33:28.292Z,1.80
2018-08-25T21:35:57.332Z,1.37
2018-08-25T21:38:27.508Z,1.63
2018-08-25T21:40:56.735Z,1.90
2018-08-25T21:43:25.903Z,2.60
2018-08-25T21:45:54.960Z,1.97
2018-08-25T21:48:24.058Z,1.87
2018-08-25T21:50:53.081Z,2.13
2018-08-25T21:53:22.154Z,2.20
2018-08-25T21:55:51.218Z,2.07
2018-08-25T21:58:20.295Z,1.90
2018-08-25T22:00:55.901Z,2.20
2018-08-25T22:03:26.834Z,2.43
2018-08-25T22:05:57.152Z,2.07
2018-08-25T22:08:26.302Z,2.47
2018-08-25T22:10:55.467Z,2.47
2018-08-25T22:13:24.640Z,2.60
2018-08-25T22:15:53.756Z,3.80
2018-08-25T22:18:22.791Z,4.37
2018-08-25T22:20:51.905Z,3.33
2018-08-25T22:23:20.928Z,2.80
2018-08-25T22:25:50.024Z,2.93
2018-08-25T22:28:19.056Z,3.33
2018-08-25T22:30:48.052Z,3.37
2018-08-25T22:33:17.149Z,3.55
2018-08-25T22:35:46.224Z,3.10
2018-08-25T22:38:15.333Z,3.50
2018-08-25T22:40:44.422Z,3.30
2018-08-25T22:43:13.476Z,2.70
2018-08-25T22:45:42.514Z,2.87
2018-08-25T22:48:14.003Z,2.73
2018-08-25T22:50:49.835Z,3.03
2018-08-25T22:53:18.917Z,3.53
2018-08-25T22:55:47.953Z,3.23
2018-08-25T22:58:17.031Z,3.00
2018-08-25T23:00:46.193Z,3.07
2018-08-25T23:03:15.205Z,3.50
2018-08-25T23:05:44.820Z,2.80
2018-08-25T23:08:13.856Z,3.37
2018-08-25T23:10:42.907Z,3.43
2018-08-25T23:13:13.533Z,3.00
2018-08-25T23:15:42.638Z,3.20
2018-08-25T23:18:11.654Z,3.43
2018-08-25T23:20:40.924Z,3.00
2018-08-25T23:23:09.938Z,2.43
2018-08-25T23:25:38.988Z,3.43
2018-08-25T23:28:09.758Z,3.13
2018-08-25T23:30:38.835Z,3.07
2018-08-25T23:33:07.911Z,3.43
2018-08-25T23:35:36.958Z,3.00
2018-08-25T23:38:06.072Z,3.57
2018-08-25T23:40:35.066Z,2.97
2018-08-25T23:43:04.115Z,3.00
2018-08-25T23:45:33.738Z,3.40
2018-08-25T23:48:02.778Z,3.40
2018-08-25T23:50:31.859Z,3.40
2018-08-25T23:53:00.977Z,3.07
2018-08-25T23:55:30.021Z,3.53
2018-08-25T23:57:59.075Z,3.73
